sensor_id;sensor_type;location;lat;lon;timestamp;P1;durP1;ratioP1;P2;durP2;ratioP2
28007;SDS011;15333;50.010;20.020;2023-05-20T00:01:38;112.47;;;49.20;;
28007;SDS011;15333;50.010;20.020;2023-05-20T00:04:38;111.93;;;50.47;;
28007;SDS011;15333;50.010;20.020;2023-05-20T00:07:41;106.65;;;48.65;;
28007;SDS011;15333;50.010;20.020;2023-05-20T00:10:42;122.70;;;51.92;;
28007;SDS011;15333;50.010;20.020;2023-05-20T00:13:43;110.90;;;48.88;;
28007;SDS011;15333;50.010;20.020;2023-05-20T00:16:44;112.95;;;49.65;;
28007;SDS011;15333;50.010;20.020;2023-05-20T00:19:45;120.20;;;50.03;;
28007;SDS011;15333;50.010;20.020;2023-05-20T00:22:46;125.93;;;52.45;;
28007;SDS011;15333;50.010;20.020;2023-05-20T00:25:47;121.22;;;50.55;;
28007;SDS011;15333;50.010;20.020;2023-05-20T00:28:48;120.57;;;50.03;;
28007;SDS011;15333;50.010;20.020;2023-05-20T00:31:50;124.40;;;52.95;;
28007;SDS011;15333;50.010;20.020;2023-05-20T00:34:57;125.90;;;52.22;;
28007;SDS011;15333;50.010;20.020;2023-05-20T00:37:59;120.80;;;50.13;;
28007;SDS011;15333;50.010;20.020;2023-05-20T00:41:00;111.90;;;48.42;;
28007;SDS011;15333;50.010;20.020;2023-05-20T00:44:01;112.22;;;48.63;;
28007;SDS011;15333;50.010;20.020;2023-05-20T00:47:01;122.45;;;50.38;;
28007;SDS011;15333;50.010;20.020;2023-05-20T00:50:02;114.75;;;47.65;;
28007;SDS011;15333;50.010;20.020;2023-05-20T00:53:05;105.45;;;45.55;;
28007;SDS011;15333;50.010;20.020;2023-05-20T00:56:06;118.07;;;47.42;;
28007;SDS011;15333;50.010;20.020;2023-05-20T00:59:08;114.57;;;46.88;;
28007;SDS011;15333;50.010;20.020;2023-05-20T01:02:09;127.85;;;49.80;;
28007;SDS011;15333;50.010;20.020;2023-05-20T01:05:10;125.07;;;49.65;;
28007;SDS011;15333;50.010;20.020;2023-05-20T01:08:11;137.63;;;49.58;;
28007;SDS011;15333;50.010;20.020;2023-05-20T01:11:15;123.57;;;48.28;;
28007;SDS011;15333;50.010;20.020;2023-05-20T01:14:35;117.60;;;47.30;;
28007;SDS011;15333;50.010;20.020;2023-05-20T01:17:48;124.65;;;48.35;;
28007;SDS011;15333;50.010;20.020;2023-05-20T01:20:52;129.20;;;48.50;;
28007;SDS011;15333;50.010;20.020;2023-05-20T01:23:55;121.20;;;47.08;;
28007;SDS011;15333;50.010;20.020;2023-05-20T01:26:56;126.75;;;46.25;;
28007;SDS011;15333;50.010;20.020;2023-05-20T01:29:57;119.20;;;45.55;;
28007;SDS011;15333;50.010;20.020;2023-05-20T01:33:00;136.52;;;51.80;;
28007;SDS011;15333;50.010;20.020;2023-05-20T01:36:04;128.23;;;46.47;;
28007;SDS011;15333;50.010;20.020;2023-05-20T01:39:07;126.63;;;47.90;;
28007;SDS011;15333;50.010;20.020;2023-05-20T01:42:09;130.32;;;47.40;;
28007;SDS011;15333;50.010;20.020;2023-05-20T01:45:11;120.28;;;45.80;;
28007;SDS011;15333;50.010;20.020;2023-05-20T01:48:12;131.75;;;48.67;;
28007;SDS011;15333;50.010;20.020;2023-05-20T01:51:13;124.82;;;46.97;;
28007;SDS011;15333;50.010;20.020;2023-05-20T01:54:14;131.40;;;48.00;;
28007;SDS011;15333;50.010;20.020;2023-05-20T01:57:21;140.07;;;50.72;;
28007;SDS011;15333;50.010;20.020;2023-05-20T02:00:24;140.43;;;51.40;;
28007;SDS011;15333;50.010;20.020;2023-05-20T02:03:25;144.02;;;49.78;;
28007;SDS011;15333;50.010;20.020;2023-05-20T02:06:26;137.43;;;50.60;;
28007;SDS011;15333;50.010;20.020;2023-05-20T02:09:28;147.95;;;51.03;;
28007;SDS011;15333;50.010;20.020;2023-05-20T02:12:29;146.15;;;51.30;;
28007;SDS011;15333;50.010;20.020;2023-05-20T02:15:30;147.32;;;50.88;;
28007;SDS011;15333;50.010;20.020;2023-05-20T02:18:31;140.07;;;50.03;;
28007;SDS011;15333;50.010;20.020;2023-05-20T02:21:35;147.18;;;48.25;;
28007;SDS011;15333;50.010;20.020;2023-05-20T02:24:36;175.43;;;54.17;;
28007;SDS011;15333;50.010;20.020;2023-05-20T02:27:37;144.27;;;50.60;;
28007;SDS011;15333;50.010;20.020;2023-05-20T02:30:39;146.07;;;50.92;;
28007;SDS011;15333;50.010;20.020;2023-05-20T02:33:40;141.55;;;49.17;;
28007;SDS011;15333;50.010;20.020;2023-05-20T02:36:41;151.43;;;50.75;;
28007;SDS011;15333;50.010;20.020;2023-05-20T02:39:42;143.30;;;50.22;;
28007;SDS011;15333;50.010;20.020;2023-05-20T02:42:43;153.98;;;51.53;;
28007;SDS011;15333;50.010;20.020;2023-05-20T02:45:44;163.55;;;49.33;;
28007;SDS011;15333;50.010;20.020;2023-05-20T02:48:47;156.90;;;52.22;;
28007;SDS011;15333;50.010;20.020;2023-05-20T02:51:48;147.18;;;51.28;;
28007;SDS011;15333;50.010;20.020;2023-05-20T02:54:49;128.55;;;45.88;;
28007;SDS011;15333;50.010;20.020;2023-05-20T02:57:51;145.25;;;49.35;;
28007;SDS011;15333;50.010;20.020;2023-05-20T03:00:52;154.05;;;52.55;;
28007;SDS011;15333;50.010;20.020;2023-05-20T03:03:54;135.18;;;48.47;;
28007;SDS011;15333;50.010;20.020;2023-05-20T03:06:54;137.20;;;48.63;;
28007;SDS011;15333;50.010;20.020;2023-05-20T03:09:57;121.88;;;47.47;;
28007;SDS011;15333;50.010;20.020;2023-05-20T03:12:58;123.68;;;48.42;;
28007;SDS011;15333;50.010;20.020;2023-05-20T03:15:59;141.43;;;49.70;;
28007;SDS011;15333;50.010;20.020;2023-05-20T03:19:01;130.27;;;48.88;;
28007;SDS011;15333;50.010;20.020;2023-05-20T03:22:02;133.02;;;51.22;;
28007;SDS011;15333;50.010;20.020;2023-05-20T03:25:03;136.48;;;50.42;;
28007;SDS011;15333;50.010;20.020;2023-05-20T03:28:06;132.05;;;50.33;;
28007;SDS011;15333;50.010;20.020;2023-05-20T03:31:09;123.60;;;46.50;;
28007;SDS011;15333;50.010;20.020;2023-05-20T03:34:10;115.80;;;45.53;;
28007;SDS011;15333;50.010;20.020;2023-05-20T03:37:11;105.20;;;44.28;;
28007;SDS011;15333;50.010;20.020;2023-05-20T03:40:12;116.85;;;47.13;;
28007;SDS011;15333;50.010;20.020;2023-05-20T03:43:14;118.18;;;48.03;;
28007;SDS011;15333;50.010;20.020;2023-05-20T03:46:15;117.25;;;48.05;;
28007;SDS011;15333;50.010;20.020;2023-05-20T03:49:16;122.68;;;48.08;;
28007;SDS011;15333;50.010;20.020;2023-05-20T03:52:18;130.43;;;56.85;;
28007;SDS011;15333;50.010;20.020;2023-05-20T03:55:19;110.00;;;47.17;;
28007;SDS011;15333;50.010;20.020;2023-05-20T03:58:21;106.97;;;45.85;;
28007;SDS011;15333;50.010;20.020;2023-05-20T04:01:22;108.13;;;45.97;;
28007;SDS011;15333;50.010;20.020;2023-05-20T04:04:26;105.38;;;47.08;;
28007;SDS011;15333;50.010;20.020;2023-05-20T04:07:28;102.53;;;43.10;;
28007;SDS011;15333;50.010;20.020;2023-05-20T04:10:30;102.80;;;44.97;;
28007;SDS011;15333;50.010;20.020;2023-05-20T04:13:32;101.43;;;44.92;;
28007;SDS011;15333;50.010;20.020;2023-05-20T04:16:33;108.97;;;46.97;;
28007;SDS011;15333;50.010;20.020;2023-05-20T04:19:34;112.43;;;47.80;;
28007;SDS011;15333;50.010;20.020;2023-05-20T04:22:36;117.22;;;48.38;;
28007;SDS011;15333;50.010;20.020;2023-05-20T04:25:38;103.63;;;46.30;;
28007;SDS011;15333;50.010;20.020;2023-05-20T04:28:41;96.97;;;44.30;;
28007;SDS011;15333;50.010;20.020;2023-05-20T04:31:42;95.40;;;43.40;;
28007;SDS011;15333;50.010;20.020;2023-05-20T04:34:45;93.18;;;45.08;;
28007;SDS011;15333;50.010;20.020;2023-05-20T04:37:47;86.90;;;41.78;;
28007;SDS011;15333;50.010;20.020;2023-05-20T04:40:48;102.45;;;46.05;;
28007;SDS011;15333;50.010;20.020;2023-05-20T04:43:49;97.78;;;45.22;;
28007;SDS011;15333;50.010;20.020;2023-05-20T04:46:50;87.25;;;44.25;;
28007;SDS011;15333;50.010;20.020;2023-05-20T04:49:52;94.90;;;44.00;;
28007;SDS011;15333;50.010;20.020;2023-05-20T04:52:53;83.78;;;42.08;;
28007;SDS011;15333;50.010;20.020;2023-05-20T04:55:55;87.10;;;44.47;;
28007;SDS011;15333;50.010;20.020;2023-05-20T04:58:57;94.85;;;44.90;;
28007;SDS011;15333;50.010;20.020;2023-05-20T05:01:58;92.05;;;43.70;;
28007;SDS011;15333;50.010;20.020;2023-05-20T05:04:59;99.40;;;45.83;;
28007;SDS011;15333;50.010;20.020;2023-05-20T05:08:02;95.57;;;45.20;;
28007;SDS011;15333;50.010;20.020;2023-05-20T05:11:04;103.80;;;47.22;;
28007;SDS011;15333;50.010;20.020;2023-05-20T05:14:06;96.53;;;44.15;;
28007;SDS011;15333;50.010;20.020;2023-05-20T05:17:08;98.95;;;45.35;;
28007;SDS011;15333;50.010;20.020;2023-05-20T05:20:09;96.25;;;45.58;;
28007;SDS011;15333;50.010;20.020;2023-05-20T05:23:10;110.30;;;49.80;;
28007;SDS011;15333;50.010;20.020;2023-05-20T05:26:12;108.20;;;49.05;;
28007;SDS011;15333;50.010;20.020;2023-05-20T05:29:13;102.07;;;45.75;;
28007;SDS011;15333;50.010;20.020;2023-05-20T05:32:14;99.30;;;45.72;;
28007;SDS011;15333;50.010;20.020;2023-05-20T05:35:15;103.03;;;46.40;;
28007;SDS011;15333;50.010;20.020;2023-05-20T05:38:16;108.82;;;46.30;;
28007;SDS011;15333;50.010;20.020;2023-05-20T05:41:17;109.75;;;47.13;;
28007;SDS011;15333;50.010;20.020;2023-05-20T05:44:18;114.80;;;49.05;;
28007;SDS011;15333;50.010;20.020;2023-05-20T05:47:20;94.03;;;44.47;;
28007;SDS011;15333;50.010;20.020;2023-05-20T05:50:21;99.00;;;45.83;;
28007;SDS011;15333;50.010;20.020;2023-05-20T05:53:22;102.40;;;46.47;;
28007;SDS011;15333;50.010;20.020;2023-05-20T05:56:23;93.82;;;44.63;;
28007;SDS011;15333;50.010;20.020;2023-05-20T05:59:24;93.90;;;44.03;;
28007;SDS011;15333;50.010;20.020;2023-05-20T06:02:26;90.80;;;44.00;;
28007;SDS011;15333;50.010;20.020;2023-05-20T06:05:28;93.88;;;45.05;;
28007;SDS011;15333;50.010;20.020;2023-05-20T06:08:30;95.03;;;44.05;;
28007;SDS011;15333;50.010;20.020;2023-05-20T06:11:31;84.22;;;41.40;;
28007;SDS011;15333;50.010;20.020;2023-05-20T06:14:32;90.40;;;45.22;;
28007;SDS011;15333;50.010;20.020;2023-05-20T06:17:33;90.75;;;43.60;;
28007;SDS011;15333;50.010;20.020;2023-05-20T06:20:34;93.65;;;44.90;;
28007;SDS011;15333;50.010;20.020;2023-05-20T06:23:35;90.70;;;44.88;;
28007;SDS011;15333;50.010;20.020;2023-05-20T06:26:38;92.75;;;44.95;;
28007;SDS011;15333;50.010;20.020;2023-05-20T06:29:40;81.68;;;39.30;;
28007;SDS011;15333;50.010;20.020;2023-05-20T06:39:36;84.88;;;42.95;;
28007;SDS011;15333;50.010;20.020;2023-05-20T06:42:37;77.97;;;41.92;;
28007;SDS011;15333;50.010;20.020;2023-05-20T06:45:39;82.53;;;41.17;;
28007;SDS011;15333;50.010;20.020;2023-05-20T06:49:03;72.47;;;39.78;;
28007;SDS011;15333;50.010;20.020;2023-05-20T06:52:04;74.75;;;40.08;;
28007;SDS011;15333;50.010;20.020;2023-05-20T06:55:05;69.00;;;38.17;;
28007;SDS011;15333;50.010;20.020;2023-05-20T06:58:08;73.88;;;39.13;;
28007;SDS011;15333;50.010;20.020;2023-05-20T07:01:11;71.30;;;38.35;;
28007;SDS011;15333;50.010;20.020;2023-05-20T07:04:14;69.68;;;39.70;;
28007;SDS011;15333;50.010;20.020;2023-05-20T07:07:15;69.20;;;37.55;;
28007;SDS011;15333;50.010;20.020;2023-05-20T07:10:16;70.10;;;39.90;;
28007;SDS011;15333;50.010;20.020;2023-05-20T07:13:17;60.78;;;35.97;;
28007;SDS011;15333;50.010;20.020;2023-05-20T07:16:18;61.05;;;35.20;;
28007;SDS011;15333;50.010;20.020;2023-05-20T07:19:26;57.70;;;35.10;;
28007;SDS011;15333;50.010;20.020;2023-05-20T07:22:28;61.80;;;37.10;;
28007;SDS011;15333;50.010;20.020;2023-05-20T07:25:42;55.97;;;30.92;;
28007;SDS011;15333;50.010;20.020;2023-05-20T07:28:44;59.78;;;31.55;;
28007;SDS011;15333;50.010;20.020;2023-05-20T07:31:46;59.50;;;34.47;;
28007;SDS011;15333;50.010;20.020;2023-05-20T07:34:47;57.25;;;33.67;;
28007;SDS011;15333;50.010;20.020;2023-05-20T07:37:48;59.35;;;33.15;;
28007;SDS011;15333;50.010;20.020;2023-05-20T07:40:50;54.13;;;32.10;;
28007;SDS011;15333;50.010;20.020;2023-05-20T07:43:51;57.95;;;32.65;;
28007;SDS011;15333;50.010;20.020;2023-05-20T07:46:52;48.92;;;30.17;;
28007;SDS011;15333;50.010;20.020;2023-05-20T07:49:54;54.60;;;31.85;;
28007;SDS011;15333;50.010;20.020;2023-05-20T07:52:56;54.63;;;33.65;;
28007;SDS011;15333;50.010;20.020;2023-05-20T07:55:59;54.55;;;32.38;;
28007;SDS011;15333;50.010;20.020;2023-05-20T07:59:02;54.08;;;30.77;;
28007;SDS011;15333;50.010;20.020;2023-05-20T08:02:07;54.78;;;32.03;;
28007;SDS011;15333;50.010;20.020;2023-05-20T08:05:10;55.78;;;32.53;;
28007;SDS011;15333;50.010;20.020;2023-05-20T08:08:11;54.58;;;32.63;;
28007;SDS011;15333;50.010;20.020;2023-05-20T08:11:26;55.67;;;32.67;;
28007;SDS011;15333;50.010;20.020;2023-05-20T08:14:27;57.30;;;33.03;;
28007;SDS011;15333;50.010;20.020;2023-05-20T08:17:29;55.42;;;33.30;;
28007;SDS011;15333;50.010;20.020;2023-05-20T08:20:30;59.45;;;31.83;;
28007;SDS011;15333;50.010;20.020;2023-05-20T08:23:31;60.67;;;34.97;;
28007;SDS011;15333;50.010;20.020;2023-05-20T08:26:32;63.08;;;33.63;;
28007;SDS011;15333;50.010;20.020;2023-05-20T08:29:33;63.55;;;35.72;;
28007;SDS011;15333;50.010;20.020;2023-05-20T08:32:35;62.63;;;35.25;;
28007;SDS011;15333;50.010;20.020;2023-05-20T08:35:37;61.95;;;35.50;;
28007;SDS011;15333;50.010;20.020;2023-05-20T08:38:39;59.33;;;33.50;;
28007;SDS011;15333;50.010;20.020;2023-05-20T08:41:41;56.85;;;32.53;;
28007;SDS011;15333;50.010;20.020;2023-05-20T08:44:43;60.22;;;36.03;;
28007;SDS011;15333;50.010;20.020;2023-05-20T08:47:45;57.00;;;34.90;;
28007;SDS011;15333;50.010;20.020;2023-05-20T08:50:48;62.53;;;35.28;;
28007;SDS011;15333;50.010;20.020;2023-05-20T08:53:50;54.55;;;33.45;;
28007;SDS011;15333;50.010;20.020;2023-05-20T08:56:51;57.58;;;34.05;;
28007;SDS011;15333;50.010;20.020;2023-05-20T08:59:54;58.70;;;33.42;;
28007;SDS011;15333;50.010;20.020;2023-05-20T09:02:57;59.53;;;34.45;;
28007;SDS011;15333;50.010;20.020;2023-05-20T09:06:06;57.25;;;30.58;;
28007;SDS011;15333;50.010;20.020;2023-05-20T09:09:09;64.97;;;37.28;;
28007;SDS011;15333;50.010;20.020;2023-05-20T09:12:11;60.47;;;30.98;;
28007;SDS011;15333;50.010;20.020;2023-05-20T09:15:12;57.92;;;35.55;;
28007;SDS011;15333;50.010;20.020;2023-05-20T09:18:13;60.05;;;36.15;;
28007;SDS011;15333;50.010;20.020;2023-05-20T09:21:14;62.72;;;32.97;;
28007;SDS011;15333;50.010;20.020;2023-05-20T09:24:19;61.50;;;35.47;;
28007;SDS011;15333;50.010;20.020;2023-05-20T09:27:22;63.72;;;36.83;;
28007;SDS011;15333;50.010;20.020;2023-05-20T09:30:24;66.10;;;37.65;;
28007;SDS011;15333;50.010;20.020;2023-05-20T09:33:28;59.78;;;35.45;;
28007;SDS011;15333;50.010;20.020;2023-05-20T09:36:31;60.90;;;34.65;;
28007;SDS011;15333;50.010;20.020;2023-05-20T09:39:36;65.53;;;38.08;;
28007;SDS011;15333;50.010;20.020;2023-05-20T09:43:04;63.15;;;36.72;;
28007;SDS011;15333;50.010;20.020;2023-05-20T09:46:10;62.00;;;37.20;;
28007;SDS011;15333;50.010;20.020;2023-05-20T09:49:11;65.75;;;39.47;;
28007;SDS011;15333;50.010;20.020;2023-05-20T09:52:16;61.30;;;37.70;;
28007;SDS011;15333;50.010;20.020;2023-05-20T09:55:20;59.20;;;38.63;;
28007;SDS011;15333;50.010;20.020;2023-05-20T09:58:22;62.15;;;40.38;;
28007;SDS011;15333;50.010;20.020;2023-05-20T10:01:23;67.45;;;38.90;;
28007;SDS011;15333;50.010;20.020;2023-05-20T10:04:25;65.10;;;40.22;;
28007;SDS011;15333;50.010;20.020;2023-05-20T10:07:45;58.97;;;34.03;;
28007;SDS011;15333;50.010;20.020;2023-05-20T10:14:14;66.25;;;41.33;;
28007;SDS011;15333;50.010;20.020;2023-05-20T10:20:18;59.70;;;38.40;;
28007;SDS011;15333;50.010;20.020;2023-05-20T10:23:20;62.90;;;38.42;;
28007;SDS011;15333;50.010;20.020;2023-05-20T10:26:33;62.05;;;39.75;;
28007;SDS011;15333;50.010;20.020;2023-05-20T10:32:55;53.00;;;34.90;;
28007;SDS011;15333;50.010;20.020;2023-05-20T10:35:59;56.47;;;33.78;;
28007;SDS011;15333;50.010;20.020;2023-05-20T10:39:00;52.60;;;36.38;;
28007;SDS011;15333;50.010;20.020;2023-05-20T10:42:07;52.20;;;33.92;;
28007;SDS011;15333;50.010;20.020;2023-05-20T10:45:10;50.85;;;34.42;;
28007;SDS011;15333;50.010;20.020;2023-05-20T10:48:18;45.78;;;30.88;;
28007;SDS011;15333;50.010;20.020;2023-05-20T10:51:21;48.50;;;32.30;;
28007;SDS011;15333;50.010;20.020;2023-05-20T10:54:22;48.50;;;32.13;;
28007;SDS011;15333;50.010;20.020;2023-05-20T10:57:25;49.50;;;31.92;;
28007;SDS011;15333;50.010;20.020;2023-05-20T11:00:26;47.55;;;30.52;;
28007;SDS011;15333;50.010;20.020;2023-05-20T11:03:27;45.50;;;29.77;;
28007;SDS011;15333;50.010;20.020;2023-05-20T11:06:28;53.78;;;33.45;;
28007;SDS011;15333;50.010;20.020;2023-05-20T11:09:29;48.72;;;33.15;;
28007;SDS011;15333;50.010;20.020;2023-05-20T11:12:31;48.10;;;30.85;;
28007;SDS011;15333;50.010;20.020;2023-05-20T11:15:33;53.88;;;34.28;;
28007;SDS011;15333;50.010;20.020;2023-05-20T11:18:35;45.65;;;32.65;;
28007;SDS011;15333;50.010;20.020;2023-05-20T11:21:41;44.75;;;30.70;;
28007;SDS011;15333;50.010;20.020;2023-05-20T11:24:43;50.20;;;31.13;;
28007;SDS011;15333;50.010;20.020;2023-05-20T11:27:44;42.67;;;30.10;;
28007;SDS011;15333;50.010;20.020;2023-05-20T11:30:46;45.83;;;28.60;;
28007;SDS011;15333;50.010;20.020;2023-05-20T11:33:49;49.70;;;33.45;;
28007;SDS011;15333;50.010;20.020;2023-05-20T11:36:56;49.58;;;32.03;;
28007;SDS011;15333;50.010;20.020;2023-05-20T11:40:04;50.28;;;30.85;;
28007;SDS011;15333;50.010;20.020;2023-05-20T11:43:09;51.55;;;34.58;;
28007;SDS011;15333;50.010;20.020;2023-05-20T11:46:11;49.42;;;33.25;;
28007;SDS011;15333;50.010;20.020;2023-05-20T11:49:13;55.65;;;35.25;;
28007;SDS011;15333;50.010;20.020;2023-05-20T11:52:15;51.92;;;34.55;;
28007;SDS011;15333;50.010;20.020;2023-05-20T11:55:16;48.25;;;30.55;;
28007;SDS011;15333;50.010;20.020;2023-05-20T11:58:17;55.45;;;35.20;;
28007;SDS011;15333;50.010;20.020;2023-05-20T12:01:19;47.08;;;31.83;;
28007;SDS011;15333;50.010;20.020;2023-05-20T12:04:20;50.17;;;34.40;;
28007;SDS011;15333;50.010;20.020;2023-05-20T12:07:21;49.25;;;35.15;;
28007;SDS011;15333;50.010;20.020;2023-05-20T12:10:23;48.97;;;33.67;;
28007;SDS011;15333;50.010;20.020;2023-05-20T12:13:23;53.80;;;36.05;;
28007;SDS011;15333;50.010;20.020;2023-05-20T12:16:25;50.63;;;34.78;;
28007;SDS011;15333;50.010;20.020;2023-05-20T12:19:26;52.65;;;35.58;;
28007;SDS011;15333;50.010;20.020;2023-05-20T12:22:27;47.40;;;32.83;;
28007;SDS011;15333;50.010;20.020;2023-05-20T12:25:28;48.67;;;34.33;;
28007;SDS011;15333;50.010;20.020;2023-05-20T12:28:29;50.78;;;32.33;;
28007;SDS011;15333;50.010;20.020;2023-05-20T12:31:31;48.78;;;33.42;;
28007;SDS011;15333;50.010;20.020;2023-05-20T12:34:32;43.03;;;31.83;;
28007;SDS011;15333;50.010;20.020;2023-05-20T12:37:35;41.78;;;31.30;;
28007;SDS011;15333;50.010;20.020;2023-05-20T12:40:38;43.17;;;31.70;;
28007;SDS011;15333;50.010;20.020;2023-05-20T12:43:39;40.08;;;29.35;;
28007;SDS011;15333;50.010;20.020;2023-05-20T12:46:40;40.92;;;28.67;;
28007;SDS011;15333;50.010;20.020;2023-05-20T12:49:41;36.00;;;27.55;;
28007;SDS011;15333;50.010;20.020;2023-05-20T12:52:42;46.38;;;26.15;;
28007;SDS011;15333;50.010;20.020;2023-05-20T12:55:43;40.80;;;27.73;;
28007;SDS011;15333;50.010;20.020;2023-05-20T12:58:44;40.35;;;29.02;;
28007;SDS011;15333;50.010;20.020;2023-05-20T13:01:47;33.15;;;25.05;;
28007;SDS011;15333;50.010;20.020;2023-05-20T13:04:48;39.03;;;28.25;;
28007;SDS011;15333;50.010;20.020;2023-05-20T13:07:49;36.50;;;27.35;;
28007;SDS011;15333;50.010;20.020;2023-05-20T13:10:50;37.55;;;27.73;;
28007;SDS011;15333;50.010;20.020;2023-05-20T13:13:53;35.83;;;26.88;;
28007;SDS011;15333;50.010;20.020;2023-05-20T13:16:54;34.97;;;26.17;;
28007;SDS011;15333;50.010;20.020;2023-05-20T13:19:55;31.80;;;25.55;;
28007;SDS011;15333;50.010;20.020;2023-05-20T13:22:56;32.22;;;23.85;;
28007;SDS011;15333;50.010;20.020;2023-05-20T13:25:57;38.30;;;26.50;;
28007;SDS011;15333;50.010;20.020;2023-05-20T13:28:58;35.58;;;25.40;;
28007;SDS011;15333;50.010;20.020;2023-05-20T13:31:59;30.75;;;22.05;;
28007;SDS011;15333;50.010;20.020;2023-05-20T13:35:00;30.65;;;22.65;;
28007;SDS011;15333;50.010;20.020;2023-05-20T13:38:01;29.40;;;22.70;;
28007;SDS011;15333;50.010;20.020;2023-05-20T13:41:02;30.48;;;23.17;;
28007;SDS011;15333;50.010;20.020;2023-05-20T13:44:02;38.08;;;23.70;;
28007;SDS011;15333;50.010;20.020;2023-05-20T13:47:04;35.58;;;23.45;;
28007;SDS011;15333;50.010;20.020;2023-05-20T13:50:05;28.45;;;21.38;;
28007;SDS011;15333;50.010;20.020;2023-05-20T13:53:06;28.20;;;21.67;;
28007;SDS011;15333;50.010;20.020;2023-05-20T13:56:11;31.30;;;21.25;;
28007;SDS011;15333;50.010;20.020;2023-05-20T13:59:12;27.95;;;22.08;;
28007;SDS011;15333;50.010;20.020;2023-05-20T14:02:13;34.55;;;21.70;;
28007;SDS011;15333;50.010;20.020;2023-05-20T14:05:14;28.60;;;21.02;;
28007;SDS011;15333;50.010;20.020;2023-05-20T14:08:16;25.13;;;19.25;;
28007;SDS011;15333;50.010;20.020;2023-05-20T14:11:17;26.15;;;20.38;;
28007;SDS011;15333;50.010;20.020;2023-05-20T14:14:18;32.25;;;21.13;;
28007;SDS011;15333;50.010;20.020;2023-05-20T14:17:18;29.92;;;21.73;;
28007;SDS011;15333;50.010;20.020;2023-05-20T14:20:19;26.48;;;22.13;;
28007;SDS011;15333;50.010;20.020;2023-05-20T14:23:20;30.45;;;21.20;;
28007;SDS011;15333;50.010;20.020;2023-05-20T14:26:21;27.40;;;20.42;;
28007;SDS011;15333;50.010;20.020;2023-05-20T14:29:23;30.27;;;20.92;;
28007;SDS011;15333;50.010;20.020;2023-05-20T14:32:23;29.20;;;21.25;;
28007;SDS011;15333;50.010;20.020;2023-05-20T14:35:25;25.95;;;19.25;;
28007;SDS011;15333;50.010;20.020;2023-05-20T14:38:25;20.67;;;17.08;;
28007;SDS011;15333;50.010;20.020;2023-05-20T14:41:27;26.48;;;17.98;;
28007;SDS011;15333;50.010;20.020;2023-05-20T14:44:28;23.23;;;17.52;;
28007;SDS011;15333;50.010;20.020;2023-05-20T14:47:30;23.85;;;17.65;;
28007;SDS011;15333;50.010;20.020;2023-05-20T14:50:31;28.42;;;18.90;;
28007;SDS011;15333;50.010;20.020;2023-05-20T14:53:32;21.67;;;18.10;;
28007;SDS011;15333;50.010;20.020;2023-05-20T14:56:32;21.23;;;16.88;;
28007;SDS011;15333;50.010;20.020;2023-05-20T14:59:33;24.88;;;17.85;;
28007;SDS011;15333;50.010;20.020;2023-05-20T15:02:34;21.05;;;16.85;;
28007;SDS011;15333;50.010;20.020;2023-05-20T15:05:36;22.92;;;17.33;;
28007;SDS011;15333;50.010;20.020;2023-05-20T15:08:37;21.67;;;17.27;;
28007;SDS011;15333;50.010;20.020;2023-05-20T15:11:38;24.38;;;18.17;;
28007;SDS011;15333;50.010;20.020;2023-05-20T15:14:38;24.20;;;16.75;;
28007;SDS011;15333;50.010;20.020;2023-05-20T15:17:40;27.60;;;17.42;;
28007;SDS011;15333;50.010;20.020;2023-05-20T15:20:40;23.45;;;16.27;;
28007;SDS011;15333;50.010;20.020;2023-05-20T15:23:41;21.77;;;16.58;;
28007;SDS011;15333;50.010;20.020;2023-05-20T15:26:42;27.15;;;16.42;;
28007;SDS011;15333;50.010;20.020;2023-05-20T15:29:43;21.13;;;17.02;;
28007;SDS011;15333;50.010;20.020;2023-05-20T15:32:44;19.98;;;16.25;;
28007;SDS011;15333;50.010;20.020;2023-05-20T15:35:45;20.13;;;14.98;;
28007;SDS011;15333;50.010;20.020;2023-05-20T15:38:47;20.65;;;15.65;;
28007;SDS011;15333;50.010;20.020;2023-05-20T15:41:48;20.35;;;15.38;;
28007;SDS011;15333;50.010;20.020;2023-05-20T15:44:51;17.02;;;14.27;;
28007;SDS011;15333;50.010;20.020;2023-05-20T15:47:52;22.15;;;15.20;;
28007;SDS011;15333;50.010;20.020;2023-05-20T15:50:53;17.85;;;14.55;;
28007;SDS011;15333;50.010;20.020;2023-05-20T15:53:54;18.23;;;13.95;;
28007;SDS011;15333;50.010;20.020;2023-05-20T15:56:54;18.98;;;14.98;;
28007;SDS011;15333;50.010;20.020;2023-05-20T15:59:56;21.52;;;14.23;;
28007;SDS011;15333;50.010;20.020;2023-05-20T16:02:57;17.73;;;13.57;;
28007;SDS011;15333;50.010;20.020;2023-05-20T16:05:58;18.50;;;14.13;;
28007;SDS011;15333;50.010;20.020;2023-05-20T16:08:59;17.45;;;13.43;;
28007;SDS011;15333;50.010;20.020;2023-05-20T16:12:00;18.95;;;13.40;;
28007;SDS011;15333;50.010;20.020;2023-05-20T16:15:01;18.08;;;13.10;;
28007;SDS011;15333;50.010;20.020;2023-05-20T16:18:02;17.33;;;12.55;;
28007;SDS011;15333;50.010;20.020;2023-05-20T16:21:04;15.60;;;12.05;;
28007;SDS011;15333;50.010;20.020;2023-05-20T16:24:07;14.68;;;10.85;;
28007;SDS011;15333;50.010;20.020;2023-05-20T16:27:08;14.48;;;12.07;;
28007;SDS011;15333;50.010;20.020;2023-05-20T16:30:10;15.82;;;11.60;;
28007;SDS011;15333;50.010;20.020;2023-05-20T16:33:11;15.10;;;12.00;;
28007;SDS011;15333;50.010;20.020;2023-05-20T16:36:12;19.15;;;12.63;;
28007;SDS011;15333;50.010;20.020;2023-05-20T16:39:13;15.00;;;12.45;;
28007;SDS011;15333;50.010;20.020;2023-05-20T16:42:15;19.15;;;12.40;;
28007;SDS011;15333;50.010;20.020;2023-05-20T16:45:16;17.05;;;12.57;;
28007;SDS011;15333;50.010;20.020;2023-05-20T16:48:17;15.00;;;13.20;;
28007;SDS011;15333;50.010;20.020;2023-05-20T16:51:18;14.93;;;12.70;;
28007;SDS011;15333;50.010;20.020;2023-05-20T16:54:19;18.30;;;13.55;;
28007;SDS011;15333;50.010;20.020;2023-05-20T16:57:20;16.88;;;12.43;;
28007;SDS011;15333;50.010;20.020;2023-05-20T17:00:21;16.70;;;12.25;;
28007;SDS011;15333;50.010;20.020;2023-05-20T17:03:22;16.58;;;14.43;;
28007;SDS011;15333;50.010;20.020;2023-05-20T17:06:23;21.08;;;15.15;;
28007;SDS011;15333;50.010;20.020;2023-05-20T17:09:24;17.85;;;13.60;;
28007;SDS011;15333;50.010;20.020;2023-05-20T17:12:25;20.40;;;13.18;;
28007;SDS011;15333;50.010;20.020;2023-05-20T17:15:26;19.35;;;12.82;;
28007;SDS011;15333;50.010;20.020;2023-05-20T17:18:28;17.00;;;13.88;;
28007;SDS011;15333;50.010;20.020;2023-05-20T17:21:28;17.25;;;13.68;;
28007;SDS011;15333;50.010;20.020;2023-05-20T17:24:30;19.13;;;13.95;;
28007;SDS011;15333;50.010;20.020;2023-05-20T17:27:32;18.02;;;13.95;;
28007;SDS011;15333;50.010;20.020;2023-05-20T17:30:33;24.00;;;14.77;;
28007;SDS011;15333;50.010;20.020;2023-05-20T17:33:34;19.52;;;14.73;;
28007;SDS011;15333;50.010;20.020;2023-05-20T17:36:35;20.17;;;14.43;;
28007;SDS011;15333;50.010;20.020;2023-05-20T17:39:36;20.17;;;14.73;;
28007;SDS011;15333;50.010;20.020;2023-05-20T17:42:37;19.60;;;14.05;;